Time;durP1;ratioP1;P1;durP2;ratioP2;P2;SDS_P1;SDS_P2;PMS_P1;PMS_P2;Temp;Humidity;BMP_temperature;BMP_pressure;BME280_temperature;BME280_humidity;BME280_pressure;Samples;Min_cycle;Max_cycle;Signal;HPM_P1;HPM_P2
2022/02/06 00:01:35;;;;;;;;;;;10.80;99.30;;;;;;5070274;28;20381;-76
2022/02/06 00:04:01;;;;;;;;;;;10.80;99.40;;;;;;5069987;28;20298;-76
2022/02/06 00:06:29;;;;;;;;;;;10.80;99.40;;;;;;5069428;28;19915;-76
2022/02/06 00:08:55;;;;;;;;;;;10.90;99.50;;;;;;5068565;28;19912;-76
2022/02/06 00:11:20;;;;;;;;;;;10.70;99.60;;;;;;5068593;28;19917;-76
2022/02/06 00:13:46;;;;;;;;;;;10.70;99.70;;;;;;5069912;28;19908;-75
2022/02/06 00:16:11;;;;;;;;;;;10.70;99.80;;;;;;5069707;28;20330;-75
2022/02/06 00:18:39;;;;;;;;;;;10.60;99.90;;;;;;5068270;28;20317;-76
2022/02/06 00:21:11;;;;;;;;;;;10.60;99.90;;;;;;5069588;28;20345;-75
2022/02/06 00:23:36;;;;;;;;;;;10.70;99.90;;;;;;5069229;28;19920;-76
2022/02/06 00:34:28;;;;;;;;;;;10.50;99.90;;;;;;5069775;28;19944;-75
2022/02/06 00:39:38;;;;;;;;;;;10.40;99.90;;;;;;5069703;28;20393;-76
2022/02/06 00:42:04;;;;;;;;;;;10.40;99.90;;;;;;5069290;28;19964;-76
2022/02/06 00:44:29;;;;;;;;;;;10.30;99.90;;;;;;5067698;28;19920;-76
2022/02/06 00:46:58;;;;;;;;;;;10.20;99.90;;;;;;5067747;28;20263;-76
2022/02/06 00:49:28;;;;;;;;;;;10.20;99.90;;;;;;5067952;28;19935;-77
2022/02/06 00:54:22;;;;;;;;;;;10.20;99.90;;;;;;5067833;28;20317;-77
2022/02/06 00:56:47;;;;;;;;;;;10.10;99.90;;;;;;5067695;28;19917;-76
2022/02/06 00:59:13;;;;;;;;;;;10.10;99.90;;;;;;5069067;28;20363;-76
2022/02/06 01:01:41;;;;;;;;;;;10.10;99.90;;;;;;5068961;28;19941;-76
2022/02/06 01:04:08;;;;;;;;;;;10.10;99.90;;;;;;5068892;28;20351;-76
2022/02/06 01:06:33;;;;;;;;;;;10.10;99.90;;;;;;5068163;28;19909;-76
2022/02/06 01:08:59;;;;;;;;;;;10.10;99.90;;;;;;5067838;28;20414;-76
2022/02/06 01:11:25;;;;;;;;;;;10.10;99.90;;;;;;5068465;28;20003;-76
2022/02/06 01:14:06;;;;;;;;;;;10.00;99.90;;;;;;5067475;28;19912;-76
2022/02/06 01:16:37;;;;;;;;;;;10.00;99.90;;;;;;5068721;28;19916;-76
2022/02/06 01:19:08;;;;;;;;;;;10.00;99.90;;;;;;5068640;28;19916;-76
2022/02/06 01:21:48;;;;;;;;;;;10.00;99.90;;;;;;5068630;28;19916;-76
2022/02/06 01:26:54;;;;;;;;;;;10.00;99.90;;;;;;5068597;28;20339;-77
2022/02/06 01:29:38;;;;;;;;;;;9.90;99.90;;;;;;5068461;28;19958;-76
2022/02/06 01:32:16;;;;;;;;;;;9.90;99.90;;;;;;5067129;28;20014;-76
2022/02/06 01:37:14;;;;;;;;;;;9.90;99.90;;;;;;5068608;28;19912;-77
2022/02/06 01:42:28;;;;;;;;;;;9.90;99.90;;;;;;5068357;28;20388;-76
2022/02/06 02:23:32;;;;;;;;;;;9.70;99.90;;;;;;5066921;28;19928;-76
2022/02/06 02:48:03;;;;;;;;;;;9.80;99.90;;;;;;5066465;28;20274;-76
2022/02/06 02:50:31;;;;;;;;;;;9.70;99.90;;;;;;5067655;28;19943;-76
2022/02/06 02:53:23;;;;;;;;;;;9.80;99.90;;;;;;5067709;28;19908;-76
2022/02/06 02:58:25;;;;;;;;;;;9.70;99.90;;;;;;5067620;28;20106;-76
2022/02/06 03:03:29;;;;;;;;;;;9.70;99.90;;;;;;5067462;28;19920;-76
2022/02/06 03:05:57;;;;;;;;;;;9.70;99.90;;;;;;5067467;28;19942;-76
2022/02/06 03:08:23;;;;;;;;;;;9.70;99.90;;;;;;5067375;28;19908;-76
2022/02/06 03:10:51;;;;;;;;;;;9.70;99.90;;;;;;5066169;28;20274;-76
2022/02/06 03:13:19;;;;;;;;;;;9.70;99.90;;;;;;5067362;28;19924;-75
2022/02/06 03:16:23;;;;;;;;;;;9.70;99.90;;;;;;5068119;28;19959;-76
2022/02/06 03:18:44;;;;;;;;;;;9.70;99.90;;;;;;5069707;28;19920;-76
2022/02/06 03:21:17;;;;;;;;;;;9.70;99.90;;;;;;5071128;28;19913;-76
2022/02/06 03:23:49;;;;;;;;;;;9.60;99.90;;;;;;5070871;28;19960;-76
2022/02/06 03:26:14;;;;;;;;;;;9.70;99.90;;;;;;5070868;28;19912;-76
2022/02/06 03:28:40;;;;;;;;;;;9.60;99.90;;;;;;5070771;28;19919;-76
2022/02/06 03:31:06;;;;;;;;;;;9.60;99.90;;;;;;5070635;28;19972;-76
2022/02/06 03:33:32;;;;;;;;;;;9.50;99.90;;;;;;5070748;28;20570;-76
2022/02/06 03:35:57;;;;;;;;;;;9.50;99.90;;;;;;5070852;28;19947;-76
2022/02/06 03:38:23;;;;;;;;;;;9.50;99.90;;;;;;5070581;28;19916;-76
2022/02/06 03:40:57;;;;;;;;;;;9.40;99.90;;;;;;5070579;28;19948;-76
2022/02/06 03:43:35;;;;;;;;;;;9.40;99.90;;;;;;5069423;28;20381;-76
2022/02/06 03:46:11;;;;;;;;;;;9.40;99.90;;;;;;5070592;28;19930;-76
2022/02/06 03:48:47;;;;;;;;;;;9.40;99.90;;;;;;5070381;28;20021;-76
2022/02/06 03:51:21;;;;;;;;;;;9.40;99.90;;;;;;5070448;28;20329;-75
2022/02/06 03:53:49;;;;;;;;;;;9.40;99.90;;;;;;5070551;28;19912;-76
2022/02/06 03:56:15;;;;;;;;;;;9.40;99.90;;;;;;5070060;28;19912;-76
2022/02/06 03:58:41;;;;;;;;;;;9.40;99.90;;;;;;5069857;28;19919;-76
2022/02/06 04:01:07;;;;;;;;;;;9.40;99.90;;;;;;5069794;28;20440;-76
2022/02/06 04:03:32;;;;;;;;;;;9.40;99.90;;;;;;5068517;28;19974;-75
2022/02/06 04:05:58;;;;;;;;;;;9.40;99.90;;;;;;5070213;28;19917;-76
2022/02/06 04:08:25;;;;;;;;;;;9.40;99.90;;;;;;5070003;28;20431;-76
2022/02/06 04:10:52;;;;;;;;;;;9.40;99.90;;;;;;5070091;28;19912;-76
2022/02/06 04:13:22;;;;;;;;;;;9.40;99.90;;;;;;5069940;28;19916;-76
2022/02/06 04:15:54;;;;;;;;;;;9.40;99.90;;;;;;5069964;28;19912;-76
2022/02/06 04:18:28;;;;;;;;;;;9.40;99.90;;;;;;5069907;28;19916;-76
2022/02/06 04:20:54;;;;;;;;;;;9.40;99.90;;;;;;5069985;28;19913;-76
2022/02/06 04:23:19;;;;;;;;;;;9.40;99.90;;;;;;5069581;28;19912;-76
2022/02/06 04:25:45;;;;;;;;;;;9.40;99.90;;;;;;5069539;28;19912;-76
2022/02/06 04:28:10;;;;;;;;;;;9.40;99.90;;;;;;5067478;28;19919;-76
2022/02/06 04:30:36;;;;;;;;;;;9.40;99.90;;;;;;5069356;28;19948;-76
2022/02/06 04:33:05;;;;;;;;;;;9.40;99.90;;;;;;5070066;28;20011;-76
2022/02/06 04:35:34;;;;;;;;;;;9.40;99.90;;;;;;5069537;28;19909;-76
2022/02/06 04:51:44;;;;;;;;;;;9.40;99.90;;;;;;5069505;28;19969;-76
2022/02/06 04:54:31;;;;;;;;;;;9.30;99.90;;;;;;5069040;28;19979;-76
2022/02/06 05:31:15;;;;;;;;;;;8.70;99.90;;;;;;5068312;28;20410;-76
2022/02/06 05:33:41;;;;;;;;;;;8.60;99.90;;;;;;5068561;28;19916;-76
2022/02/06 05:36:09;;;;;;;;;;;8.60;99.90;;;;;;5067079;28;20449;-76
2022/02/06 05:38:35;;;;;;;;;;;8.50;99.90;;;;;;5068217;28;20380;-76
2022/02/06 05:41:01;;;;;;;;;;;8.50;99.90;;;;;;5068269;28;19908;-76
2022/02/06 05:43:26;;;;;;;;;;;8.50;99.90;;;;;;5068193;28;20434;-76
2022/02/06 05:45:52;;;;;;;;;;;8.50;99.90;;;;;;5068284;28;19916;-76
2022/02/06 05:48:19;;;;;;;;;;;8.50;99.90;;;;;;5068169;28;19947;-76
2022/02/06 05:50:44;;;;;;;;;;;8.40;99.90;;;;;;5069445;28;19913;-76
2022/02/06 05:53:15;;;;;;;;;;;8.40;99.90;;;;;;5068133;28;20396;-76
2022/02/06 05:55:42;;;;;;;;;;;8.30;99.90;;;;;;5068181;28;19932;-76
2022/02/06 05:58:07;;;;;;;;;;;8.30;99.90;;;;;;5066804;28;20286;-76
2022/02/06 06:00:33;;;;;;;;;;;8.30;99.90;;;;;;5068141;28;19912;-76
2022/02/06 06:03:00;;;;;;;;;;;8.30;99.90;;;;;;5067986;28;20437;-76
2022/02/06 06:05:26;;;;;;;;;;;8.30;99.90;;;;;;5068100;28;19920;-76
2022/02/06 06:07:51;;;;;;;;;;;8.30;99.90;;;;;;5067957;28;19915;-76
2022/02/06 06:10:17;;;;;;;;;;;8.30;99.90;;;;;;5068043;28;19908;-75
2022/02/06 06:12:43;;;;;;;;;;;8.30;99.90;;;;;;5068000;28;19927;-75
2022/02/06 06:15:08;;;;;;;;;;;8.30;99.90;;;;;;5066805;28;19913;-75
2022/02/06 06:17:35;;;;;;;;;;;8.30;99.90;;;;;;5067891;28;19914;-76
2022/02/06 06:20:02;;;;;;;;;;;8.30;99.90;;;;;;5068032;28;20362;-76
2022/02/06 06:22:27;;;;;;;;;;;8.30;99.80;;;;;;5068113;28;19908;-76
2022/02/06 06:24:56;;;;;;;;;;;8.30;99.80;;;;;;5067890;28;19940;-76
2022/02/06 06:27:22;;;;;;;;;;;8.30;99.80;;;;;;5067805;28;19916;-75
2022/02/06 06:29:48;;;;;;;;;;;8.30;99.90;;;;;;5067587;28;20031;-75
2022/02/06 06:32:14;;;;;;;;;;;8.30;99.90;;;;;;5067820;28;19913;-76
2022/02/06 06:34:39;;;;;;;;;;;8.30;99.90;;;;;;5068282;28;19912;-76
2022/02/06 06:37:05;;;;;;;;;;;8.30;99.90;;;;;;5067787;28;19920;-76
2022/02/06 06:39:43;;;;;;;;;;;8.40;99.90;;;;;;5067684;28;19969;-75
2022/02/06 06:42:08;;;;;;;;;;;8.40;99.90;;;;;;5067762;28;19913;-76
2022/02/06 06:44:34;;;;;;;;;;;8.40;99.90;;;;;;5067494;28;19917;-76
2022/02/06 06:47:00;;;;;;;;;;;8.40;99.80;;;;;;5067629;28;19957;-76
2022/02/06 06:49:25;;;;;;;;;;;8.40;99.70;;;;;;5067624;28;19920;-76
2022/02/06 06:51:52;;;;;;;;;;;8.40;99.70;;;;;;5070353;28;19923;-76
2022/02/06 06:54:22;;;;;;;;;;;8.40;99.70;;;;;;5071510;28;20210;-76
2022/02/06 06:57:02;;;;;;;;;;;8.40;99.60;;;;;;5071579;28;19970;-76
2022/02/06 07:02:17;;;;;;;;;;;8.40;99.70;;;;;;5070532;28;19913;-76
2022/02/06 07:04:43;;;;;;;;;;;8.30;99.70;;;;;;5071301;28;19964;-76
2022/02/06 07:07:09;;;;;;;;;;;8.30;99.70;;;;;;5069947;28;19908;-76
2022/02/06 07:09:34;;;;;;;;;;;8.30;99.80;;;;;;5071177;28;20342;-76
2022/02/06 07:12:00;;;;;;;;;;;8.30;99.80;;;;;;5071101;28;19913;-76
2022/02/06 07:14:26;;;;;;;;;;;8.30;99.90;;;;;;5071021;28;19960;-76
2022/02/06 07:16:51;;;;;;;;;;;8.30;99.90;;;;;;5071054;28;19908;-75
2022/02/06 07:19:17;;;;;;;;;;;8.30;99.90;;;;;;5070883;28;19916;-76
2022/02/06 07:21:43;;;;;;;;;;;8.20;99.90;;;;;;5070958;28;19932;-76
2022/02/06 07:24:08;;;;;;;;;;;8.20;99.90;;;;;;5069441;28;20004;-75
2022/02/06 07:26:34;;;;;;;;;;;8.20;99.90;;;;;;5071402;28;19970;-76
2022/02/06 07:29:01;;;;;;;;;;;8.20;99.90;;;;;;5070857;28;19934;-76
2022/02/06 07:31:27;;;;;;;;;;;8.20;99.90;;;;;;5070831;28;20345;-75
2022/02/06 07:33:53;;;;;;;;;;;8.20;99.90;;;;;;5069496;28;19912;-75
2022/02/06 07:36:20;;;;;;;;;;;8.20;99.90;;;;;;5070628;28;19943;-75
2022/02/06 07:38:45;;;;;;;;;;;8.30;99.90;;;;;;5069244;28;20008;-76
2022/02/06 07:41:11;;;;;;;;;;;8.30;99.90;;;;;;5070624;28;20481;-76
2022/02/06 07:43:37;;;;;;;;;;;8.30;99.80;;;;;;5070412;28;20003;-76
2022/02/06 07:46:08;;;;;;;;;;;8.30;99.70;;;;;;5070436;28;19916;-76
2022/02/06 07:48:33;;;;;;;;;;;8.30;99.70;;;;;;5070242;28;19993;-76
2022/02/06 07:50:59;;;;;;;;;;;8.40;99.60;;;;;;5070535;28;20375;-76
2022/02/06 07:53:25;;;;;;;;;;;8.40;99.60;;;;;;5070349;28;20374;-76
2022/02/06 07:55:50;;;;;;;;;;;8.40;99.50;;;;;;5070351;28;19920;-76
2022/02/06 07:58:16;;;;;;;;;;;8.40;99.50;;;;;;5070212;28;19908;-76
2022/02/06 08:00:42;;;;;;;;;;;8.30;99.50;;;;;;5070096;28;20389;-76
2022/02/06 08:03:07;;;;;;;;;;;8.20;99.50;;;;;;5070051;28;19931;-76
2022/02/06 08:05:33;;;;;;;;;;;8.20;99.50;;;;;;5070122;28;19962;-76
2022/02/06 08:08:00;;;;;;;;;;;8.10;99.40;;;;;;5070088;28;19958;-76
2022/02/06 08:10:27;;;;;;;;;;;8.00;99.50;;;;;;5070143;28;19951;-75
2022/02/06 08:12:56;;;;;;;;;;;7.90;99.60;;;;;;5069938;28;20020;-76
2022/02/06 08:15:22;;;;;;;;;;;7.90;99.70;;;;;;5070117;28;20286;-76
2022/02/06 08:17:48;;;;;;;;;;;7.80;99.90;;;;;;5070225;28;19912;-75
2022/02/06 08:20:15;;;;;;;;;;;7.90;99.90;;;;;;5069939;28;20371;-76
2022/02/06 08:22:41;;;;;;;;;;;7.90;99.90;;;;;;5068710;28;19967;-76
2022/02/06 08:25:07;;;;;;;;;;;8.00;99.90;;;;;;5069727;28;20305;-76
2022/02/06 08:27:33;;;;;;;;;;;8.00;99.90;;;;;;5069650;28;20011;-75
2022/02/06 08:29:59;;;;;;;;;;;8.00;99.90;;;;;;5069319;28;20019;-76
2022/02/06 08:32:28;;;;;;;;;;;7.90;99.90;;;;;;5069607;28;19913;-75
2022/02/06 08:34:54;;;;;;;;;;;7.90;99.90;;;;;;5068233;28;20211;-75
2022/02/06 08:37:20;;;;;;;;;;;7.90;99.90;;;;;;5069612;28;19926;-75
2022/02/06 08:39:46;;;;;;;;;;;7.90;99.90;;;;;;5068352;28;19939;-76
2022/02/06 08:42:12;;;;;;;;;;;7.90;99.90;;;;;;5069395;28;19909;-75
2022/02/06 08:44:39;;;;;;;;;;;8.00;99.90;;;;;;5069298;28;20461;-75
2022/02/06 08:47:05;;;;;;;;;;;8.00;99.90;;;;;;5069120;28;20316;-76
2022/02/06 08:49:31;;;;;;;;;;;8.10;99.90;;;;;;5068885;28;19917;-76
2022/02/06 08:51:56;;;;;;;;;;;8.10;99.90;;;;;;5067673;28;20359;-76
2022/02/06 08:54:25;;;;;;;;;;;8.10;99.90;;;;;;5068983;28;19998;-76
2022/02/06 08:56:51;;;;;;;;;;;8.10;99.90;;;;;;5067575;28;20358;-76
2022/02/06 08:59:17;;;;;;;;;;;8.10;99.90;;;;;;5067359;28;19962;-76
2022/02/06 09:01:42;;;;;;;;;;;8.20;99.90;;;;;;5068942;28;20279;-75
2022/02/06 09:04:08;;;;;;;;;;;8.20;99.90;;;;;;5067599;28;20366;-75
2022/02/06 09:06:36;;;;;;;;;;;8.30;99.90;;;;;;5068803;28;19965;-75
2022/02/06 09:09:02;;;;;;;;;;;8.30;99.90;;;;;;5068570;28;19913;-75
2022/02/06 09:11:29;;;;;;;;;;;8.40;99.90;;;;;;5068713;28;19974;-76
2022/02/06 09:13:55;;;;;;;;;;;8.40;99.90;;;;;;5068167;28;19913;-76
2022/02/06 09:16:23;;;;;;;;;;;8.40;99.90;;;;;;5068554;28;19916;-75
2022/02/06 09:18:49;;;;;;;;;;;8.50;99.90;;;;;;5068249;28;20027;-76
2022/02/06 09:21:16;;;;;;;;;;;8.50;99.90;;;;;;5068334;28;20238;-76
2022/02/06 09:23:42;;;;;;;;;;;8.60;99.90;;;;;;5067353;28;20010;-75
2022/02/06 09:26:07;;;;;;;;;;;8.80;99.90;;;;;;5068940;28;19972;-76
2022/02/06 09:28:33;;;;;;;;;;;9.00;99.90;;;;;;5067094;28;19999;-76
2022/02/06 09:30:59;;;;;;;;;;;9.10;99.80;;;;;;5067861;28;19928;-76
2022/02/06 09:35:50;;;;;;;;;;;9.30;99.10;;;;;;5068089;28;19995;-76
2022/02/06 09:38:16;;;;;;;;;;;9.40;99.10;;;;;;5067796;28;19931;-75
2022/02/06 09:40:44;;;;;;;;;;;9.50;99.20;;;;;;5067898;28;19921;-76
2022/02/06 09:43:09;;;;;;;;;;;9.60;98.90;;;;;;5066662;28;19951;-76
2022/02/06 09:45:38;;;;;;;;;;;9.60;98.60;;;;;;5068145;28;19912;-75
2022/02/06 09:48:04;;;;;;;;;;;9.50;98.40;;;;;;5067886;28;20012;-76
2022/02/06 09:50:30;;;;;;;;;;;9.40;98.30;;;;;;5067865;28;19923;-76
2022/02/06 09:52:55;;;;;;;;;;;9.40;98.40;;;;;;5067953;28;20315;-76
2022/02/06 09:55:22;;;;;;;;;;;9.30;98.50;;;;;;5066314;28;19934;-76
2022/02/06 09:58:00;;;;;;;;;;;9.30;98.60;;;;;;5067590;28;20290;-76
2022/02/06 10:00:29;;;;;;;;;;;9.40;98.70;;;;;;5067932;28;19941;-76
2022/02/06 10:03:01;;;;;;;;;;;9.60;98.60;;;;;;5067762;28;19916;-76
2022/02/06 10:05:33;;;;;;;;;;;9.90;98.70;;;;;;5067619;28;19966;-76
2022/02/06 10:08:20;;;;;;;;;;;10.20;98.80;;;;;;5066219;28;19935;-76
2022/02/06 10:10:59;;;;;;;;;;;10.30;98.00;;;;;;5067767;28;20381;-75
2022/02/06 10:13:24;;;;;;;;;;;10.30;97.60;;;;;;5067735;28;20338;-76
2022/02/06 10:15:50;;;;;;;;;;;10.40;97.60;;;;;;5067499;28;19912;-76
2022/02/06 10:18:16;;;;;;;;;;;10.60;97.90;;;;;;5067619;28;20320;-76
2022/02/06 10:20:44;;;;;;;;;;;10.70;97.20;;;;;;5067511;28;19917;-76
2022/02/06 10:26:06;;;;;;;;;;;10.60;97.10;;;;;;5070055;28;20351;-76
2022/02/06 10:28:37;;;;;;;;;;;10.60;97.20;;;;;;5071207;28;19916;-76
2022/02/06 10:31:04;;;;;;;;;;;10.60;97.00;;;;;;5071315;28;19924;-75
2022/02/06 10:33:46;;;;;;;;;;;10.50;96.70;;;;;;5071537;28;19909;-76
2022/02/06 10:36:12;;;;;;;;;;;10.50;96.50;;;;;;5071966;28;19919;-76
2022/02/06 10:38:38;;;;;;;;;;;10.50;96.50;;;;;;5069937;28;20000;-76
2022/02/06 10:41:03;;;;;;;;;;;10.90;97.10;;;;;;5069722;28;20350;-76
2022/02/06 10:43:29;;;;;;;;;;;11.50;97.40;;;;;;5071225;28;20187;-76
2022/02/06 10:46:13;;;;;;;;;;;12.30;96.90;;;;;;5070979;28;20023;-76
2022/02/06 10:48:46;;;;;;;;;;;12.70;95.70;;;;;;5070900;28;20056;-76
2022/02/06 10:51:32;;;;;;;;;;;12.90;94.50;;;;;;5071654;28;19931;-76
2022/02/06 10:53:59;;;;;;;;;;;12.70;94.10;;;;;;5070348;28;19908;-75
2022/02/06 10:56:24;;;;;;;;;;;12.40;93.60;;;;;;5071152;28;19940;-76
2022/02/06 10:58:57;;;;;;;;;;;12.20;93.60;;;;;;5070746;28;19943;-76
2022/02/06 11:01:25;;;;;;;;;;;11.90;93.50;;;;;;5070563;28;20007;-75
2022/02/06 11:04:06;;;;;;;;;;;11.60;93.60;;;;;;5070437;28;19912;-76
2022/02/06 11:06:55;;;;;;;;;;;11.40;93.90;;;;;;5070483;28;19952;-76
2022/02/06 11:09:28;;;;;;;;;;;11.50;94.10;;;;;;5069329;28;19912;-76
2022/02/06 11:12:00;;;;;;;;;;;11.80;93.80;;;;;;5070345;28;19908;-75
2022/02/06 11:14:27;;;;;;;;;;;11.60;93.50;;;;;;5069158;28;19912;-76
2022/02/06 11:16:53;;;;;;;;;;;11.30;93.50;;;;;;5070785;28;19912;-76
2022/02/06 11:19:20;;;;;;;;;;;11.10;93.60;;;;;;5070504;28;19928;-76
2022/02/06 11:21:46;;;;;;;;;;;10.90;93.80;;;;;;5070569;28;19915;-76
2022/02/06 11:24:21;;;;;;;;;;;10.70;94.00;;;;;;5070421;28;20418;-76
2022/02/06 11:26:47;;;;;;;;;;;11.00;94.60;;;;;;5070305;28;20255;-76
2022/02/06 11:29:13;;;;;;;;;;;11.10;94.60;;;;;;5070581;28;19931;-76
2022/02/06 11:31:39;;;;;;;;;;;11.80;95.60;;;;;;5069960;28;19920;-74
2022/02/06 11:34:04;;;;;;;;;;;12.70;95.70;;;;;;5068600;28;20007;-77
2022/02/06 11:45:11;;;;;;;;;;;15.40;92.90;;;;;;5070495;28;19928;-75
2022/02/06 11:47:40;;;;;;;;;;;15.70;91.50;;;;;;5069930;28;19908;-75
2022/02/06 11:50:10;;;;;;;;;;;16.00;91.10;;;;;;5069526;28;19915;-75
2022/02/06 11:52:55;;;;;;;;;;;16.20;90.80;;;;;;5069561;28;19916;-75
2022/02/06 11:55:31;;;;;;;;;;;16.40;90.10;;;;;;5069518;28;19982;-75
2022/02/06 11:58:15;;;;;;;;;;;16.50;90.00;;;;;;5069824;28;20416;-75
2022/02/06 12:00:40;;;;;;;;;;;16.70;88.80;;;;;;5069389;28;19943;-75
2022/02/06 12:03:15;;;;;;;;;;;16.60;85.90;;;;;;5069484;28;20158;-75
2022/02/06 12:05:57;;;;;;;;;;;16.40;85.50;;;;;;5068089;28;20359;-75
2022/02/06 12:08:23;;;;;;;;;;;16.30;83.40;;;;;;5070354;28;20277;-76
2022/02/06 12:10:49;;;;;;;;;;;16.00;81.80;;;;;;5069745;28;19919;-76
2022/02/06 12:13:22;;;;;;;;;;;15.40;80.50;;;;;;5069017;28;19935;-76
2022/02/06 12:15:48;;;;;;;;;;;14.80;80.70;;;;;;5068128;28;19909;-75
2022/02/06 12:18:16;;;;;;;;;;;14.50;82.00;;;;;;5069145;28;20229;-76
2022/02/06 12:21:08;;;;;;;;;;;14.40;82.10;;;;;;5069159;28;19917;-76
2022/02/06 12:23:39;;;;;;;;;;;14.20;80.30;;;;;;5066486;28;19958;-76
2022/02/06 12:26:26;;;;;;;;;;;13.90;80.70;;;;;;5067710;28;19978;-75
2022/02/06 12:28:52;;;;;;;;;;;13.90;81.40;;;;;;5068703;28;19939;-75
2022/02/06 12:31:26;;;;;;;;;;;14.30;82.20;;;;;;5068959;28;20015;-76
2022/02/06 12:33:57;;;;;;;;;;;14.60;81.90;;;;;;5068870;28;19948;-75
2022/02/06 12:39:23;;;;;;;;;;;15.20;81.50;;;;;;5069159;28;19909;-75
2022/02/06 12:41:49;;;;;;;;;;;15.40;82.00;;;;;;5068730;28;19912;-75
2022/02/06 12:44:16;;;;;;;;;;;15.50;80.50;;;;;;5067253;28;19917;-76
2022/02/06 12:46:43;;;;;;;;;;;15.60;79.70;;;;;;5067455;28;19916;-76
2022/02/06 12:49:09;;;;;;;;;;;15.80;79.40;;;;;;5066505;28;20441;-75
2022/02/06 12:51:38;;;;;;;;;;;15.90;78.60;;;;;;5066912;28;20028;-76
2022/02/06 12:54:06;;;;;;;;;;;15.60;76.20;;;;;;5068222;28;19983;-75
2022/02/06 12:56:33;;;;;;;;;;;15.00;75.90;;;;;;5067924;28;19935;-75
2022/02/06 12:58:59;;;;;;;;;;;14.70;77.60;;;;;;5066814;28;20329;-75
2022/02/06 13:01:38;;;;;;;;;;;14.40;77.40;;;;;;5068199;28;19909;-74
2022/02/06 13:04:04;;;;;;;;;;;14.20;77.30;;;;;;5068299;28;19919;-76
2022/02/06 13:06:33;;;;;;;;;;;14.00;77.00;;;;;;5068405;28;19913;-76
2022/02/06 13:08:59;;;;;;;;;;;13.60;76.80;;;;;;5068672;28;20294;-75
2022/02/06 13:11:34;;;;;;;;;;;13.30;76.80;;;;;;5067523;28;19912;-74
2022/02/06 13:14:12;;;;;;;;;;;13.10;77.00;;;;;;5066660;28;19912;-75
2022/02/06 13:22:01;;;;;;;;;;;12.30;78.10;;;;;;5067928;28;19954;-75
2022/02/06 13:30:46;;;;;;;;;;;12.80;78.50;;;;;;5067700;28;19924;-74
2022/02/06 13:32:56;;;;;;;;;;;12.90;78.30;;;;;;5067176;28;19916;-74
2022/02/06 13:37:58;;;;;;;;;;;12.60;76.60;;;;;;5065429;28;20325;-74
2022/02/06 13:40:29;;;;;;;;;;;12.40;76.60;;;;;;5066134;28;19962;-75
2022/02/06 13:42:55;;;;;;;;;;;12.10;76.90;;;;;;5066391;28;20393;-75
2022/02/06 13:45:24;;;;;;;;;;;11.90;77.60;;;;;;5068036;28;19913;-75
2022/02/06 13:47:50;;;;;;;;;;;11.80;77.90;;;;;;5067398;28;19915;-75
2022/02/06 13:50:16;;;;;;;;;;;11.60;78.10;;;;;;5067673;28;20358;-75
2022/02/06 13:52:46;;;;;;;;;;;11.50;78.40;;;;;;5067435;28;20004;-75
2022/02/06 13:55:13;;;;;;;;;;;11.30;78.50;;;;;;5066928;28;19916;-75
2022/02/06 13:57:39;;;;;;;;;;;11.10;78.80;;;;;;5067111;28;19912;-75
2022/02/06 14:00:09;;;;;;;;;;;11.00;79.20;;;;;;5067524;28;19930;-75
2022/02/06 14:02:35;;;;;;;;;;;10.90;79.80;;;;;;5067058;28;19912;-75
2022/02/06 14:05:09;;;;;;;;;;;11.00;80.90;;;;;;5067452;28;20007;-75
2022/02/06 14:07:35;;;;;;;;;;;11.30;81.60;;;;;;5065810;28;19969;-76
2022/02/06 14:10:09;;;;;;;;;;;11.50;82.20;;;;;;5067126;28;19912;-76
2022/02/06 14:12:51;;;;;;;;;;;11.70;82.20;;;;;;5066533;28;20026;-75
2022/02/06 14:15:21;;;;;;;;;;;11.90;82.20;;;;;;5069167;28;19944;-75
2022/02/06 14:17:49;;;;;;;;;;;12.00;81.60;;;;;;5075051;28;19924;-73
2022/02/06 14:20:21;;;;;;;;;;;12.10;81.30;;;;;;5076233;28;20007;-74
2022/02/06 14:22:54;;;;;;;;;;;12.00;81.30;;;;;;5074371;28;19997;-75
2022/02/06 14:25:23;;;;;;;;;;;12.00;81.30;;;;;;5072980;28;19912;-75
2022/02/06 14:27:49;;;;;;;;;;;12.00;81.60;;;;;;5074462;28;19996;-75
2022/02/06 14:30:16;;;;;;;;;;;12.00;81.50;;;;;;5075425;28;20408;-75
2022/02/06 14:32:54;;;;;;;;;;;12.00;81.70;;;;;;5074580;28;20019;-76
2022/02/06 14:35:22;;;;;;;;;;;12.10;81.40;;;;;;5073639;28;19912;-74
2022/02/06 14:37:55;;;;;;;;;;;11.60;79.60;;;;;;5071097;28;19944;-76
2022/02/06 14:43:38;;;;;;;;;;;10.00;82.40;;;;;;5054873;28;19954;-76
2022/02/06 14:46:04;;;;;;;;;;;9.30;84.10;;;;;;5067218;28;19912;-76
2022/02/06 14:48:29;;;;;;;;;;;8.90;85.40;;;;;;5066176;28;19930;-76
2022/02/06 14:50:55;;;;;;;;;;;8.70;87.20;;;;;;5067236;28;19908;-76
2022/02/06 14:53:21;;;;;;;;;;;8.70;87.60;;;;;;5065675;28;20345;-76
2022/02/06 14:55:49;;;;;;;;;;;8.60;88.10;;;;;;5065643;28;19987;-76
2022/02/06 14:58:15;;;;;;;;;;;8.60;88.20;;;;;;5065608;28;20013;-77
2022/02/06 15:00:41;;;;;;;;;;;8.60;88.10;;;;;;5067124;28;20456;-76
2022/02/06 15:03:06;;;;;;;;;;;8.50;88.10;;;;;;5066984;28;19948;-77
2022/02/06 15:05:32;;;;;;;;;;;8.50;88.70;;;;;;5066994;28;20358;-76
2022/02/06 15:07:58;;;;;;;;;;;8.50;89.10;;;;;;5066816;28;19956;-76
2022/02/06 15:10:23;;;;;;;;;;;8.60;89.10;;;;;;5065742;28;20047;-76
2022/02/06 15:12:49;;;;;;;;;;;8.60;89.60;;;;;;5070354;28;19912;-76
2022/02/06 15:15:17;;;;;;;;;;;8.60;89.00;;;;;;5070666;28;19962;-76
2022/02/06 15:17:43;;;;;;;;;;;8.60;89.00;;;;;;5070464;28;20020;-76
2022/02/06 15:20:08;;;;;;;;;;;8.60;89.10;;;;;;5070933;28;19951;-76
2022/02/06 15:22:34;;;;;;;;;;;8.60;89.10;;;;;;5070783;28;19931;-76
2022/02/06 15:25:00;;;;;;;;;;;8.60;89.10;;;;;;5070402;28;20401;-76
2022/02/06 15:27:25;;;;;;;;;;;8.70;89.30;;;;;;5069181;28;19963;-76
2022/02/06 15:29:51;;;;;;;;;;;8.70;89.40;;;;;;5070234;28;19920;-74
2022/02/06 15:32:18;;;;;;;;;;;8.70;89.40;;;;;;5070342;28;20331;-76
2022/02/06 15:34:44;;;;;;;;;;;8.60;89.30;;;;;;5070218;28;19924;-76
2022/02/06 15:37:13;;;;;;;;;;;8.70;89.60;;;;;;5070370;28;19919;-76
2022/02/06 15:39:39;;;;;;;;;;;8.70;89.60;;;;;;5070455;28;19938;-77
2022/02/06 15:42:16;;;;;;;;;;;8.70;89.80;;;;;;5070212;28;20289;-74
2022/02/06 15:44:46;;;;;;;;;;;8.70;90.10;;;;;;5070028;28;20333;-73
2022/02/06 15:47:12;;;;;;;;;;;8.70;89.70;;;;;;5070185;28;20373;-76
2022/02/06 15:49:38;;;;;;;;;;;8.70;89.80;;;;;;5069794;28;19961;-73
2022/02/06 15:52:05;;;;;;;;;;;8.60;89.90;;;;;;5069875;28;19951;-76
2022/02/06 15:54:30;;;;;;;;;;;8.70;90.10;;;;;;5069790;28;20316;-74
2022/02/06 15:56:56;;;;;;;;;;;8.70;90.00;;;;;;5069534;28;19962;-75
2022/02/06 15:59:22;;;;;;;;;;;8.60;89.90;;;;;;5069757;28;20556;-75
2022/02/06 16:01:49;;;;;;;;;;;8.60;90.00;;;;;;5068671;28;19913;-75
2022/02/06 16:04:15;;;;;;;;;;;8.60;90.00;;;;;;5069933;28;19952;-75
2022/02/06 16:06:41;;;;;;;;;;;8.60;90.00;;;;;;5069615;28;20353;-75
2022/02/06 16:09:07;;;;;;;;;;;8.50;90.00;;;;;;5068146;28;19920;-75
2022/02/06 16:11:33;;;;;;;;;;;8.50;90.00;;;;;;5069425;28;19917;-75
2022/02/06 16:13:59;;;;;;;;;;;8.50;90.10;;;;;;5069149;28;19916;-75
2022/02/06 16:16:27;;;;;;;;;;;8.50;90.20;;;;;;5069057;28;20216;-75
2022/02/06 16:18:53;;;;;;;;;;;8.50;90.20;;;;;;5067957;28;19912;-75
2022/02/06 16:21:19;;;;;;;;;;;8.40;90.20;;;;;;5069398;28;19940;-75
2022/02/06 16:23:45;;;;;;;;;;;8.40;90.40;;;;;;5067505;28;20327;-75
2022/02/06 16:26:11;;;;;;;;;;;8.50;90.50;;;;;;5068866;28;19924;-76
2022/02/06 16:28:36;;;;;;;;;;;8.50;90.50;;;;;;5067301;28;19941;-74
2022/02/06 16:31:02;;;;;;;;;;;8.40;90.50;;;;;;5069145;28;20025;-75
2022/02/06 16:33:27;;;;;;;;;;;8.40;90.50;;;;;;5067535;28;19939;-75
2022/02/06 16:35:53;;;;;;;;;;;8.30;90.50;;;;;;5067574;28;19981;-75
2022/02/06 16:38:18;;;;;;;;;;;8.20;90.50;;;;;;5068500;28;19981;-69
2022/02/06 16:40:44;;;;;;;;;;;8.20;90.60;;;;;;5068827;28;20404;-75
2022/02/06 16:43:10;;;;;;;;;;;8.20;90.60;;;;;;5067578;28;19917;-75
2022/02/06 16:45:35;;;;;;;;;;;8.10;90.60;;;;;;5067457;28;19916;-75
2022/02/06 16:48:01;;;;;;;;;;;8.10;90.60;;;;;;5067379;28;19916;-75
2022/02/06 16:50:27;;;;;;;;;;;8.00;90.60;;;;;;5069005;28;19924;-75
2022/02/06 16:52:52;;;;;;;;;;;8.00;90.70;;;;;;5068606;28;20000;-75
2022/02/06 16:55:18;;;;;;;;;;;7.90;90.80;;;;;;5068759;28;20382;-75
2022/02/06 16:57:44;;;;;;;;;;;7.90;90.80;;;;;;5069310;28;19912;-74
2022/02/06 17:00:11;;;;;;;;;;;7.90;90.90;;;;;;5069214;28;19912;-74
2022/02/06 17:02:37;;;;;;;;;;;7.80;90.90;;;;;;5068916;28;20355;-74
2022/02/06 17:05:03;;;;;;;;;;;7.90;91.00;;;;;;5068424;28;19961;-74
2022/02/06 17:07:29;;;;;;;;;;;7.90;91.10;;;;;;5050573;28;19913;-75
2022/02/06 17:09:55;;;;;;;;;;;7.90;91.20;;;;;;5068352;28;19920;-74
2022/02/06 17:12:21;;;;;;;;;;;7.90;91.20;;;;;;5068451;28;19916;-76
2022/02/06 17:14:47;;;;;;;;;;;8.00;91.20;;;;;;5068256;28;20092;-76
2022/02/06 17:17:12;;;;;;;;;;;8.00;91.20;;;;;;5068177;28;19995;-73
2022/02/06 17:19:38;;;;;;;;;;;8.10;91.20;;;;;;5068299;28;20020;-74
2022/02/06 17:22:04;;;;;;;;;;;8.10;91.20;;;;;;5068168;28;20247;-75
2022/02/06 17:24:31;;;;;;;;;;;8.00;91.10;;;;;;5066956;28;20014;-75